ハルツーム の空港の天気 - METARとTAF

ハルツーム国際空港 ( HSSS / KRT ) - スーダン ハルツーム
飛行場実況気象(Metar)
観測時間06/24 11:30 CAT (06/24 09:30 UTC)
風向・風速西南西 3m/s
視程10km以上
天気現象
なし
気温37℃
湿度24%
気圧1009hPa
METARHSSS 240930Z 25006KT CAVOK 37/13 Q1009 NOSIG
過去の天気等 Google飛行場航空写真 Wunderground天気予報

過去48時間のMETAR

飛行場予報(TAF)
発表時間: 6/24 07:00 CAT (6/24 05:00 UTC)
予報対象時間: 24日8時 CAT ~ 25日14時 CAT
風向・風速南 4m/s 瞬間風速 9m/s
視程10km以上
なし
24日8時 CAT ~ 24日11時 CAT に一時的に
視程6000m
なし
24日11時 CAT ~ 24日14時 CAT に 確率 30% で一時的に
視程4000m
天気現象高い砂塵
24日14時 CAT ~ 24日17時 CAT に一時的に
視程10km以上
少しの雲 雲底高度 1220m
全天の4割程度の雲 雲底高度 4270m
TAF HSSS 240500Z 2406/2512 18008G18KT CAVOK
TEMPO 2406/2409 6000 NSC
PROB30 TEMPO 2409/2412 4000 BLSA
TEMPO 2412/2415 9999 FEW040 SCT140